createdAt,value
2022-09-20T00:02:54.997Z,3
2022-09-20T00:08:55.421Z,4
2022-09-20T00:14:54.941Z,4
2022-09-20T00:20:54.831Z,6
2022-09-20T00:26:55.339Z,2
2022-09-20T00:32:54.941Z,5
2022-09-20T00:38:55.079Z,3
2022-09-20T00:44:55.024Z,3
2022-09-20T00:50:54.982Z,3
2022-09-20T00:56:55.604Z,5
2022-09-20T01:02:55.182Z,5
2022-09-20T01:08:55.629Z,2
2022-09-20T01:14:55.494Z,3
2022-09-20T01:20:55.426Z,4
2022-09-20T01:26:54.773Z,4
2022-09-20T01:32:54.838Z,4
2022-09-20T01:38:54.838Z,6
2022-09-20T01:44:55.133Z,4
2022-09-20T01:50:54.819Z,5
2022-09-20T01:59:54.509Z,4
2022-09-20T02:05:54.563Z,4
2022-09-20T02:11:54.663Z,4
2022-09-20T02:17:54.729Z,11
2022-09-20T02:23:54.831Z,5
2022-09-20T02:29:54.625Z,5
2022-09-20T02:35:54.636Z,8
2022-09-20T02:41:54.618Z,5
2022-09-20T02:47:54.596Z,8
2022-09-20T02:53:54.834Z,12
2022-09-20T02:59:54.633Z,12
2022-09-20T03:05:54.675Z,4
2022-09-20T03:11:54.593Z,6
2022-09-20T03:17:54.639Z,3
2022-09-20T03:23:54.798Z,6
2022-09-20T03:29:54.587Z,5
2022-09-20T03:35:54.740Z,5
2022-09-20T03:41:54.705Z,4
2022-09-20T03:47:54.623Z,4
2022-09-20T03:53:54.662Z,4
2022-09-20T03:59:54.540Z,4
2022-09-20T04:05:54.718Z,5
2022-09-20T04:11:54.695Z,5
2022-09-20T04:17:54.836Z,5
2022-09-20T04:23:54.726Z,5
2022-09-20T04:29:54.778Z,7
2022-09-20T04:35:54.979Z,5
2022-09-20T04:41:54.702Z,7
2022-09-20T04:47:54.661Z,7
2022-09-20T04:53:54.517Z,7
2022-09-20T04:59:54.587Z,7
2022-09-20T05:05:54.537Z,7
2022-09-20T05:11:54.524Z,7
2022-09-20T05:17:54.602Z,7
2022-09-20T05:23:54.577Z,7
2022-09-20T05:29:54.582Z,7
2022-09-20T05:35:54.807Z,9
2022-09-20T05:41:54.732Z,4
2022-09-20T05:47:54.612Z,4
2022-09-20T05:53:54.657Z,4
2022-09-20T05:59:54.622Z,4
2022-09-20T06:05:54.847Z,4
2022-09-20T06:11:54.612Z,4
2022-09-20T06:17:54.755Z,5
2022-09-20T06:23:54.834Z,6
2022-09-20T06:29:54.987Z,4
2022-09-20T06:35:59.078Z,9
2022-09-20T06:41:54.988Z,5
2022-09-20T06:47:54.956Z,7
2022-09-20T06:53:56.219Z,11
2022-09-20T06:59:56.001Z,14
2022-09-20T07:05:55.722Z,7
2022-09-20T07:11:55.652Z,7
2022-09-20T07:17:57.346Z,9
2022-09-20T07:23:57.583Z,9
2022-09-20T07:30:04.974Z,7
2022-09-20T07:35:55.888Z,7
2022-09-20T07:41:55.076Z,10
2022-09-20T07:47:56.095Z,7
2022-09-20T07:53:56.132Z,7
2022-09-20T07:59:56.146Z,10
2022-09-20T08:05:56.286Z,6
2022-09-20T08:11:57.030Z,5
2022-09-20T08:17:56.316Z,5
2022-09-20T08:23:55.828Z,4
2022-09-20T08:29:55.924Z,5
2022-09-20T08:35:57.795Z,4
2022-09-20T08:41:57.330Z,6
2022-09-20T08:47:58.453Z,5
2022-09-20T08:53:56.162Z,5
2022-09-20T08:59:55.549Z,8
2022-09-20T09:05:55.702Z,5
2022-09-20T09:11:57.055Z,6
2022-09-20T09:17:55.048Z,5
2022-09-20T09:23:55.875Z,4
2022-09-20T09:29:54.977Z,5
2022-09-20T09:35:55.454Z,4
2022-09-20T09:41:56.886Z,3
2022-09-20T09:47:56.483Z,3
2022-09-20T09:53:54.935Z,2
2022-09-20T09:59:54.688Z,2
2022-09-20T10:05:54.849Z,3
2022-09-20T10:11:54.868Z,3
2022-09-20T10:17:54.671Z,3
2022-09-20T10:24:03.937Z,3
2022-09-20T10:29:54.863Z,3
2022-09-20T10:35:54.713Z,3
2022-09-20T10:41:54.737Z,3
2022-09-20T10:47:54.818Z,3
2022-09-20T10:53:54.732Z,3
2022-09-20T10:59:54.874Z,3
2022-09-20T11:05:54.754Z,3
2022-09-20T11:11:54.761Z,3
2022-09-20T11:17:54.850Z,6
2022-09-20T11:23:55.167Z,5
2022-09-20T11:29:55.087Z,5
2022-09-20T11:35:55.015Z,5
2022-09-20T11:41:55.176Z,6
2022-09-20T11:47:55.981Z,2
2022-09-20T11:53:54.661Z,3
2022-09-20T11:59:55.259Z,3
2022-09-20T12:05:54.924Z,5
2022-09-20T12:11:55.136Z,4
2022-09-20T12:17:55.045Z,4
2022-09-20T12:23:54.628Z,7
2022-09-20T12:29:54.720Z,7
2022-09-20T12:35:54.799Z,3
2022-09-20T12:41:54.730Z,3
2022-09-20T12:47:55.764Z,3
2022-09-20T12:53:54.860Z,4
2022-09-20T12:59:55.258Z,4
2022-09-20T13:05:54.817Z,4
2022-09-20T13:11:54.972Z,4
2022-09-20T13:17:54.861Z,2
2022-09-20T13:23:55.103Z,1
2022-09-20T13:29:55.480Z,3
2022-09-20T13:35:54.899Z,1
2022-09-20T13:41:54.936Z,4
2022-09-20T13:47:55.345Z,1
2022-09-20T13:53:55.263Z,2
2022-09-20T13:59:55.699Z,1
2022-09-20T14:05:55.274Z,3
2022-09-20T14:11:55.011Z,3
2022-09-20T14:17:55.513Z,4
2022-09-20T14:23:55.198Z,3
2022-09-20T14:29:54.923Z,3
2022-09-20T14:35:55.170Z,8
2022-09-20T14:41:55.003Z,2
2022-09-20T14:47:55.252Z,3
2022-09-20T14:53:55.028Z,3
2022-09-20T14:59:55.019Z,2
2022-09-20T15:05:56.531Z,2
2022-09-20T15:11:55.927Z,2
2022-09-20T15:20:55.132Z,2
2022-09-20T15:26:57.242Z,1
2022-09-20T15:33:03.042Z,3
2022-09-20T15:38:55.588Z,1
2022-09-20T15:44:56.090Z,2
2022-09-20T15:50:55.039Z,1
2022-09-20T15:56:56.620Z,3
2022-09-20T16:02:55.313Z,2
2022-09-20T16:08:57.682Z,2
2022-09-20T16:14:56.463Z,2
2022-09-20T16:20:56.999Z,5
2022-09-20T16:26:55.364Z,2
2022-09-20T16:32:56.607Z,2
2022-09-20T16:38:56.181Z,3
2022-09-20T16:44:55.621Z,2
2022-09-20T16:50:55.880Z,2
2022-09-20T16:56:55.040Z,4
2022-09-20T17:02:55.539Z,4
2022-09-20T17:08:58.992Z,2
2022-09-20T17:14:55.937Z,3
2022-09-20T17:20:58.748Z,2
2022-09-20T17:26:55.825Z,3
2022-09-20T17:32:55.767Z,2
2022-09-20T17:38:55.263Z,3
2022-09-20T17:44:57.164Z,2
2022-09-20T17:50:57.100Z,6
2022-09-20T17:56:56.993Z,3
2022-09-20T18:02:59.598Z,2
2022-09-20T18:08:57.956Z,2
2022-09-20T18:14:57.009Z,2
2022-09-20T18:20:55.039Z,5
2022-09-20T18:26:55.645Z,5
2022-09-20T18:32:56.421Z,3
2022-09-20T18:38:57.461Z,5
2022-09-20T18:44:55.868Z,3
2022-09-20T18:50:55.954Z,4
2022-09-20T18:56:55.674Z,3
2022-09-20T19:02:54.850Z,3
2022-09-20T19:08:54.801Z,3
2022-09-20T19:14:55.069Z,3
2022-09-20T19:20:54.785Z,3
2022-09-20T19:26:54.733Z,3
2022-09-20T19:32:55.681Z,4
2022-09-20T19:38:55.525Z,4
2022-09-20T19:44:54.904Z,4
2022-09-20T19:50:54.808Z,3
2022-09-20T19:56:55.767Z,4
2022-09-20T20:02:56.543Z,6
2022-09-20T20:08:55.240Z,4
2022-09-20T20:14:54.928Z,5
2022-09-20T20:20:54.862Z,4
2022-09-20T20:26:54.863Z,4
2022-09-20T20:32:55.238Z,5
2022-09-20T20:38:55.896Z,5
2022-09-20T20:44:56.479Z,6
2022-09-20T20:50:55.265Z,6
2022-09-20T20:56:55.614Z,7
2022-09-20T21:02:55.716Z,9
2022-09-20T21:08:56.423Z,10
2022-09-20T21:14:57.612Z,6
2022-09-20T21:20:55.033Z,6
2022-09-20T21:26:56.129Z,11
2022-09-20T21:32:55.239Z,13
2022-09-20T21:38:56.592Z,9
2022-09-20T21:44:57.173Z,8
2022-09-20T21:50:55.254Z,7
2022-09-20T21:56:55.323Z,6
2022-09-20T22:02:54.989Z,6
2022-09-20T22:08:55.212Z,6
2022-09-20T22:14:56.581Z,6
2022-09-20T22:20:55.793Z,7
2022-09-20T22:26:55.358Z,6
2022-09-20T22:32:55.500Z,5
2022-09-20T22:38:55.174Z,8
2022-09-20T22:44:57.128Z,11
2022-09-20T22:50:55.241Z,8
2022-09-20T22:56:55.830Z,9
2022-09-20T23:02:55.699Z,8
2022-09-20T23:08:58.094Z,8
2022-09-20T23:14:56.832Z,6
2022-09-20T23:20:56.428Z,6
2022-09-20T23:26:56.235Z,6
2022-09-20T23:32:57.909Z,6
2022-09-20T23:38:56.832Z,6
2022-09-20T23:44:58.654Z,7
2022-09-20T23:50:57.390Z,5
2022-09-20T23:56:57.602Z,6
